Time;durP1;ratioP1;P1;durP2;ratioP2;P2;SDS_P1;SDS_P2;PMS_P1;PMS_P2;Temp;Humidity;BMP_temperature;BMP_pressure;BME280_temperature;BME280_humidity;BME280_pressure;Samples;Min_cycle;Max_cycle;Signal;HPM_P1;HPM_P2
2022/11/27 00:02:08;;;;;;;4.85;1.77;;;7.20;99.90;;;;;;5006201;28;20037;-76
2022/11/27 00:04:34;;;;;;;2.35;1.48;;;7.20;99.90;;;;;;5000419;28;20254;-75
2022/11/27 00:06:59;;;;;;;4.53;2.25;;;7.20;99.90;;;;;;5003212;28;20072;-75
2022/11/27 00:09:25;;;;;;;4.70;1.50;;;7.20;99.90;;;;;;4996879;28;20045;-76
2022/11/27 00:11:50;;;;;;;4.38;2.15;;;7.20;99.90;;;;;;5002522;28;20046;-75
2022/11/27 00:14:16;;;;;;;6.00;1.65;;;7.20;99.90;;;;;;4996850;28;20026;-76
2022/11/27 00:16:43;;;;;;;4.70;1.77;;;7.20;99.90;;;;;;4999981;28;20045;-75
2022/11/27 00:19:10;;;;;;;6.40;1.85;;;7.20;99.90;;;;;;4998293;28;20050;-75
2022/11/27 00:21:36;;;;;;;4.90;1.58;;;7.20;99.90;;;;;;5001522;28;20124;-75
2022/11/27 00:24:05;;;;;;;11.95;2.38;;;7.20;99.90;;;;;;4998456;28;20576;-76
2022/11/27 00:26:31;;;;;;;4.35;2.17;;;7.20;99.90;;;;;;4999709;28;20042;-75
2022/11/27 00:28:57;;;;;;;2.80;1.50;;;7.20;99.90;;;;;;5013999;28;20037;-75
2022/11/27 00:31:27;;;;;;;5.78;1.80;;;7.10;99.90;;;;;;4997405;28;20038;-75
2022/11/27 00:34:00;;;;;;;5.72;2.28;;;7.10;99.90;;;;;;4997864;28;20030;-75
2022/11/27 00:36:27;;;;;;;4.90;1.38;;;7.10;99.90;;;;;;5002637;28;20065;-75
2022/11/27 00:38:53;;;;;;;2.22;1.42;;;7.10;99.90;;;;;;5000011;28;20138;-76
2022/11/27 00:41:24;;;;;;;4.32;1.67;;;7.10;99.90;;;;;;4985843;28;20129;-76
2022/11/27 00:43:50;;;;;;;2.60;1.45;;;7.10;99.90;;;;;;4978807;28;20475;-75
2022/11/27 00:46:18;;;;;;;8.80;1.88;;;7.10;99.90;;;;;;4981593;28;20084;-75
2022/11/27 00:48:44;;;;;;;3.70;1.60;;;7.10;99.90;;;;;;5001309;28;20044;-76
2022/11/27 00:51:16;;;;;;;8.75;1.60;;;7.10;99.90;;;;;;4998930;28;20088;-76
2022/11/27 00:53:42;;;;;;;3.90;1.42;;;7.10;99.90;;;;;;4983659;28;20483;-76
2022/11/27 00:56:13;;;;;;;6.32;2.13;;;7.10;99.90;;;;;;5001106;28;20096;-75
2022/11/27 00:58:39;;;;;;;7.20;1.40;;;7.10;99.90;;;;;;4989139;28;20042;-76
2022/11/27 01:01:06;;;;;;;3.72;1.40;;;7.00;99.90;;;;;;4998568;28;20038;-75
2022/11/27 01:03:33;;;;;;;5.97;1.77;;;7.10;99.90;;;;;;4983428;28;20041;-76
2022/11/27 01:06:06;;;;;;;7.03;1.45;;;7.00;99.90;;;;;;4990326;28;20046;-76
2022/11/27 01:08:32;;;;;;;6.53;2.10;;;7.00;99.90;;;;;;5018756;28;20042;-76
2022/11/27 01:10:59;;;;;;;5.65;1.98;;;7.00;99.90;;;;;;5002652;28;20034;-76
2022/11/27 01:13:35;;;;;;;3.63;1.10;;;7.00;99.90;;;;;;5002193;28;20042;-76
2022/11/27 01:16:07;;;;;;;7.05;1.90;;;7.00;99.90;;;;;;4986456;28;20034;-76
2022/11/27 01:18:35;;;;;;;3.97;1.52;;;7.00;99.90;;;;;;5001750;28;20061;-75
2022/11/27 01:21:01;;;;;;;7.10;1.30;;;7.00;99.90;;;;;;4986428;28;20045;-76
2022/11/27 01:23:27;;;;;;;5.63;1.35;;;7.00;99.90;;;;;;4984462;28;20120;-75
2022/11/27 01:25:52;;;;;;;7.07;1.55;;;6.90;99.90;;;;;;5000306;28;20144;-76
2022/11/27 01:28:20;;;;;;;5.85;1.48;;;7.00;99.90;;;;;;5001425;28;20046;-76
2022/11/27 01:30:45;;;;;;;4.30;1.42;;;7.00;99.90;;;;;;5002080;28;20041;-75
2022/11/27 01:33:11;;;;;;;4.75;1.73;;;6.90;99.90;;;;;;4981770;28;20142;-76
2022/11/27 01:35:36;;;;;;;2.40;1.27;;;6.90;99.90;;;;;;5005487;28;20411;-75
2022/11/27 01:38:02;;;;;;;5.53;1.88;;;6.90;99.90;;;;;;4985414;28;20034;-75
2022/11/27 01:40:28;;;;;;;6.60;2.03;;;6.90;99.90;;;;;;4980762;28;20145;-76
2022/11/27 01:42:53;;;;;;;7.72;1.90;;;6.90;99.90;;;;;;5015745;28;20128;-75
2022/11/27 01:45:21;;;;;;;2.80;1.48;;;6.90;99.90;;;;;;5002747;28;20049;-75
2022/11/27 01:47:56;;;;;;;1.45;1.00;;;6.90;99.90;;;;;;4987013;28;20038;-75
2022/11/27 01:50:25;;;;;;;;;;;6.80;99.90;;;;;;5013408;28;20035;-75
2022/11/27 01:52:54;;;;;;;2.38;1.38;;;6.80;99.90;;;;;;4985292;28;19925;-75
2022/11/27 01:55:26;;;;;;;3.00;1.70;;;6.80;99.90;;;;;;4999132;28;20096;-76
2022/11/27 01:58:14;;;;;;;3.17;1.73;;;6.80;99.90;;;;;;5000138;28;20458;-76
2022/11/27 02:00:40;;;;;;;7.80;2.35;;;6.80;99.90;;;;;;5002648;28;20030;-75
2022/11/27 02:03:05;;;;;;;4.65;1.60;;;6.80;99.90;;;;;;5000665;28;20037;-76
2022/11/27 02:05:32;;;;;;;4.13;1.50;;;6.80;99.90;;;;;;4999982;28;20088;-76
2022/11/27 02:08:03;;;;;;;3.22;1.17;;;6.80;99.90;;;;;;5001445;28;20042;-76
2022/11/27 02:10:45;;;;;;;3.67;1.80;;;6.70;99.90;;;;;;4988447;28;20052;-76
2022/11/27 02:13:19;;;;;;;10.43;2.25;;;6.70;99.90;;;;;;4987577;28;20053;-76
2022/11/27 02:16:00;;;;;;;3.72;1.88;;;6.70;99.90;;;;;;4981631;28;20041;-76
2022/11/27 02:18:47;;;;;;;2.60;1.38;;;6.70;99.90;;;;;;5001630;28;20034;-76
2022/11/27 02:21:45;;;;;;;2.83;1.40;;;6.70;99.90;;;;;;4999872;28;20493;-76
2022/11/27 02:24:35;;;;;;;7.25;1.70;;;6.60;99.90;;;;;;4972081;28;20046;-75
2022/11/27 02:27:31;;;;;;;3.50;1.80;;;6.70;99.90;;;;;;4998654;28;21742;-75
2022/11/27 02:30:01;;;;;;;5.78;2.08;;;6.70;99.90;;;;;;4980715;28;20131;-76
2022/11/27 02:32:48;;;;;;;7.22;1.88;;;6.70;99.90;;;;;;5000619;28;20419;-76
2022/11/27 02:35:38;;;;;;;5.95;1.95;;;6.70;99.90;;;;;;4999565;28;20042;-76
2022/11/27 02:38:22;;;;;;;9.88;2.10;;;6.60;99.90;;;;;;5002804;28;20034;-75
2022/11/27 02:40:54;;;;;;;4.50;1.88;;;6.70;99.90;;;;;;5001059;28;20096;-76
2022/11/27 02:43:27;;;;;;;1.50;1.00;;;6.60;99.90;;;;;;5001111;28;20045;-76
2022/11/27 02:45:55;;;;;;;3.95;1.58;;;6.60;99.90;;;;;;5002339;28;20057;-76
2022/11/27 02:48:29;;;;;;;5.13;1.85;;;6.60;99.90;;;;;;5001809;28;20041;-75
2022/11/27 02:50:55;;;;;;;4.28;1.92;;;6.60;99.90;;;;;;4983355;28;20125;-76
2022/11/27 02:53:29;;;;;;;3.33;1.80;;;6.60;99.90;;;;;;4999274;28;20099;-76
2022/11/27 02:55:57;;;;;;;3.63;1.80;;;6.60;99.90;;;;;;4995104;28;20041;-76
2022/11/27 02:58:26;;;;;;;2.60;1.30;;;6.60;99.90;;;;;;5002709;28;20042;-75
2022/11/27 03:00:52;;;;;;;3.53;2.10;;;6.60;99.90;;;;;;4979744;28;20033;-76
2022/11/27 03:03:23;;;;;;;4.68;1.70;;;6.60;99.90;;;;;;4996924;28;20046;-76
2022/11/27 03:05:52;;;;;;;2.83;1.35;;;6.60;99.90;;;;;;4984085;28;20539;-75
2022/11/27 03:08:26;;;;;;;4.93;1.70;;;6.60;99.90;;;;;;4985387;28;20070;-75
2022/11/27 03:11:09;;;;;;;6.53;1.67;;;6.60;99.90;;;;;;4979677;28;20054;-75
2022/11/27 03:13:46;;;;;;;2.42;1.85;;;6.60;99.90;;;;;;5000850;28;20147;-76
2022/11/27 03:16:23;;;;;;;7.15;1.85;;;6.70;99.90;;;;;;4981608;28;20069;-76
2022/11/27 03:19:04;;;;;;;4.72;1.63;;;6.60;99.90;;;;;;5015636;28;20038;-75
2022/11/27 03:21:37;;;;;;;2.80;1.25;;;6.60;99.90;;;;;;4982373;28;20046;-76
2022/11/27 03:24:04;;;;;;;8.70;1.80;;;6.70;99.90;;;;;;4999442;28;20100;-75
2022/11/27 03:26:30;;;;;;;5.88;2.10;;;6.70;99.90;;;;;;4999761;28;20037;-76
2022/11/27 03:28:58;;;;;;;3.80;1.65;;;6.60;99.90;;;;;;4984482;28;20034;-76
2022/11/27 03:31:25;;;;;;;5.07;1.48;;;6.70;99.90;;;;;;5001446;28;20038;-75
2022/11/27 03:33:52;;;;;;;4.35;1.77;;;6.70;99.90;;;;;;4997788;28;20038;-76
2022/11/27 03:36:20;;;;;;;2.78;1.80;;;6.70;99.90;;;;;;5000314;28;20065;-76
2022/11/27 03:38:47;;;;;;;3.03;1.38;;;6.70;99.90;;;;;;5000404;28;20037;-76
2022/11/27 03:41:19;;;;;;;3.25;1.40;;;6.70;99.90;;;;;;4997242;28;20100;-75
2022/11/27 03:44:20;;;;;;;2.70;1.40;;;6.70;99.90;;;;;;5000246;28;20121;-76
2022/11/27 03:47:00;;;;;;;4.63;1.60;;;6.70;99.90;;;;;;5014842;28;20432;-76
2022/11/27 03:49:44;;;;;;;8.20;2.28;;;6.70;99.90;;;;;;5001316;28;20038;-76
2022/11/27 03:52:46;;;;;;;6.80;1.88;;;6.70;99.90;;;;;;4998406;28;20045;-75
2022/11/27 03:55:19;;;;;;;4.13;1.45;;;6.70;99.90;;;;;;4998313;28;20061;-76
2022/11/27 03:58:05;;;;;;;5.60;1.38;;;6.70;99.90;;;;;;4997956;28;20980;-76
2022/11/27 04:00:35;;;;;;;3.08;1.67;;;6.70;99.90;;;;;;5000713;28;20125;-76
2022/11/27 04:03:02;;;;;;;4.97;2.35;;;6.70;99.90;;;;;;5001290;28;20088;-76
2022/11/27 04:05:28;;;;;;;4.57;2.15;;;6.70;99.90;;;;;;4984226;28;20554;-76
2022/11/27 04:07:54;;;;;;;4.00;1.23;;;6.70;99.90;;;;;;5001034;28;20053;-76
2022/11/27 04:10:19;;;;;;;8.32;1.40;;;6.70;99.90;;;;;;4981750;28;20038;-76
2022/11/27 04:12:45;;;;;;;4.85;1.23;;;6.60;99.90;;;;;;4997472;28;20062;-76
2022/11/27 04:15:11;;;;;;;1.85;1.02;;;6.60;99.90;;;;;;4984678;28;20084;-75
2022/11/27 04:17:37;;;;;;;4.10;1.23;;;6.60;99.90;;;;;;4999063;28;20046;-76
2022/11/27 04:20:04;;;;;;;2.20;1.27;;;6.60;99.90;;;;;;4983679;28;20060;-76
2022/11/27 04:22:29;;;;;;;2.50;1.42;;;6.60;99.90;;;;;;4998964;28;20231;-76
2022/11/27 04:24:55;;;;;;;8.68;1.33;;;6.60;99.90;;;;;;5002178;28;20592;-76
2022/11/27 04:27:20;;;;;;;3.25;1.48;;;6.60;99.90;;;;;;5003177;28;20033;-76
2022/11/27 04:29:46;;;;;;;3.60;1.40;;;6.60;99.90;;;;;;5003919;28;20037;-76
2022/11/27 04:32:11;;;;;;;2.17;1.05;;;6.60;99.90;;;;;;5004983;28;20041;-76
2022/11/27 04:34:37;;;;;;;2.20;1.02;;;6.60;99.90;;;;;;5002036;28;20038;-76
2022/11/27 04:37:03;;;;;;;3.67;1.23;;;6.50;99.90;;;;;;5001627;28;20084;-75
2022/11/27 04:39:28;;;;;;;3.40;1.67;;;6.60;99.90;;;;;;5000321;28;20033;-76
2022/11/27 04:41:54;;;;;;;2.08;1.10;;;6.60;99.90;;;;;;5002948;28;20029;-76
2022/11/27 04:44:21;;;;;;;3.97;1.40;;;6.60;99.90;;;;;;5004140;28;20081;-76
2022/11/27 04:46:47;;;;;;;8.82;1.02;;;6.60;99.90;;;;;;5004490;28;20042;-76
2022/11/27 04:49:13;;;;;;;4.03;1.50;;;6.60;99.90;;;;;;5014791;28;20518;-76
2022/11/27 04:51:39;;;;;;;1.73;1.15;;;6.60;99.90;;;;;;4991437;28;20042;-75
2022/11/27 04:54:04;;;;;;;14.80;1.80;;;6.60;99.90;;;;;;4999672;28;20038;-76
2022/11/27 04:56:30;;;;;;;2.10;0.95;;;6.60;99.90;;;;;;4986715;28;20033;-76
2022/11/27 04:58:55;;;;;;;2.03;0.90;;;6.60;99.90;;;;;;5002566;28;20029;-76
2022/11/27 05:01:21;;;;;;;4.65;1.42;;;6.60;99.90;;;;;;4998854;28;20035;-76
2022/11/27 05:03:47;;;;;;;2.60;1.33;;;6.60;99.90;;;;;;5004048;28;20574;-76
2022/11/27 05:06:13;;;;;;;4.00;1.75;;;6.60;99.90;;;;;;4999507;28;20038;-76
2022/11/27 05:08:38;;;;;;;13.15;1.38;;;6.60;99.90;;;;;;4999884;28;21272;-76
2022/11/27 05:11:11;;;;;;;2.92;1.27;;;6.60;99.90;;;;;;5001439;28;20391;-76
2022/11/27 05:13:36;;;;;;;2.30;1.55;;;6.60;99.90;;;;;;5000198;28;20043;-75
2022/11/27 05:16:02;;;;;;;2.72;1.33;;;6.60;99.90;;;;;;5002894;28;20065;-76
2022/11/27 05:18:28;;;;;;;2.85;1.40;;;6.60;99.90;;;;;;4988303;28;20038;-75
2022/11/27 05:20:58;;;;;;;4.40;1.40;;;6.60;99.90;;;;;;5001948;28;20111;-76
2022/11/27 05:23:24;;;;;;;7.60;1.15;;;6.60;99.90;;;;;;4999871;28;21976;-76
2022/11/27 05:25:50;;;;;;;3.92;1.38;;;6.60;99.90;;;;;;4995515;28;20042;-76
2022/11/27 05:28:16;;;;;;;2.75;1.17;;;6.60;99.90;;;;;;5004234;28;20100;-75
2022/11/27 05:30:41;;;;;;;1.90;1.00;;;6.60;99.90;;;;;;4984599;28;20479;-76
2022/11/27 05:33:07;;;;;;;2.67;1.35;;;6.60;99.90;;;;;;4986004;28;20049;-76
2022/11/27 05:35:32;;;;;;;2.75;1.15;;;6.60;99.90;;;;;;4985597;28;20093;-76
2022/11/27 05:37:58;;;;;;;7.82;1.77;;;6.60;99.90;;;;;;4995799;28;20038;-76
2022/11/27 05:40:23;;;;;;;4.65;1.13;;;6.60;99.90;;;;;;5003657;28;20073;-75
2022/11/27 05:42:49;;;;;;;6.63;1.08;;;6.60;99.90;;;;;;5006139;28;20454;-76
2022/11/27 05:45:14;;;;;;;5.55;1.58;;;6.60;99.90;;;;;;5006031;28;20048;-76
2022/11/27 05:47:40;;;;;;;2.65;1.08;;;6.60;99.90;;;;;;5006273;28;20038;-76
2022/11/27 05:50:06;;;;;;;1.67;0.82;;;6.60;99.90;;;;;;4988742;28;20068;-76
2022/11/27 05:52:32;;;;;;;5.00;1.65;;;6.60;99.90;;;;;;5005534;28;20084;-76
2022/11/27 05:54:57;;;;;;;2.47;0.93;;;6.60;99.90;;;;;;5002224;28;20038;-76
2022/11/27 05:57:23;;;;;;;2.80;1.17;;;6.60;99.90;;;;;;5001868;28;20057;-76
2022/11/27 05:59:49;;;;;;;2.28;1.15;;;6.60;99.90;;;;;;4983510;28;20562;-76
2022/11/27 06:02:14;;;;;;;2.72;1.50;;;6.60;99.90;;;;;;5002914;28;20494;-75
2022/11/27 06:04:40;;;;;;;1.75;0.70;;;6.70;99.90;;;;;;4999519;28;20045;-75
2022/11/27 06:07:06;;;;;;;3.20;1.25;;;6.70;99.90;;;;;;4986824;28;20034;-76
2022/11/27 06:09:31;;;;;;;2.92;1.17;;;6.70;99.90;;;;;;4996923;28;20050;-76
2022/11/27 06:11:57;;;;;;;2.30;0.90;;;6.60;99.90;;;;;;5003221;28;20049;-75
2022/11/27 06:14:23;;;;;;;1.83;1.05;;;6.60;99.90;;;;;;4985542;28;20052;-75
2022/11/27 06:16:48;;;;;;;3.03;1.50;;;6.60;99.90;;;;;;5017547;28;20034;-75
2022/11/27 06:19:14;;;;;;;6.93;1.50;;;6.60;99.90;;;;;;5003771;28;20057;-76
2022/11/27 06:21:39;;;;;;;2.75;1.13;;;6.70;99.90;;;;;;4986247;28;20129;-75
2022/11/27 06:24:05;;;;;;;1.73;0.93;;;6.60;99.90;;;;;;4983958;28;20031;-75
2022/11/27 06:26:32;;;;;;;3.40;1.20;;;6.60;99.90;;;;;;5000216;28;20092;-75
2022/11/27 06:29:00;;;;;;;2.15;0.98;;;6.60;99.90;;;;;;5001632;28;20610;-76
2022/11/27 06:31:28;;;;;;;5.57;1.45;;;6.60;99.90;;;;;;4998485;28;20033;-75
2022/11/27 06:33:55;;;;;;;12.60;1.52;;;6.60;99.90;;;;;;5000442;28;20073;-76
2022/11/27 06:36:24;;;;;;;5.20;1.27;;;6.70;99.90;;;;;;4985501;28;20034;-76
2022/11/27 06:38:50;;;;;;;1.92;1.20;;;6.60;99.90;;;;;;4995708;28;20034;-75
2022/11/27 06:41:18;;;;;;;3.42;0.90;;;6.70;99.90;;;;;;4985094;28;20030;-76
2022/11/27 06:43:44;;;;;;;9.35;1.65;;;6.70;99.90;;;;;;4998195;28;20073;-75
2022/11/27 06:46:16;;;;;;;3.05;1.10;;;6.70;99.90;;;;;;5003164;28;20037;-76
2022/11/27 06:48:43;;;;;;;4.38;1.50;;;6.70;99.90;;;;;;4996344;28;20042;-75
2022/11/27 06:51:11;;;;;;;4.82;1.00;;;6.70;99.90;;;;;;4985067;28;20049;-75
2022/11/27 06:53:37;;;;;;;7.68;1.73;;;6.70;99.90;;;;;;4983640;28;20046;-76
2022/11/27 06:56:04;;;;;;;6.55;1.42;;;6.60;99.90;;;;;;5001280;28;20045;-75
2022/11/27 06:58:30;;;;;;;7.28;1.85;;;6.70;99.90;;;;;;5003343;28;20038;-75
2022/11/27 07:00:57;;;;;;;3.42;1.33;;;6.70;99.90;;;;;;4999403;28;20100;-76
2022/11/27 07:03:23;;;;;;;2.38;1.08;;;6.70;99.90;;;;;;4998186;28;20049;-76
2022/11/27 07:05:49;;;;;;;7.20;1.38;;;6.70;99.90;;;;;;5015307;28;20034;-76
2022/11/27 07:08:14;;;;;;;5.80;1.80;;;6.70;99.90;;;;;;5000851;28;20108;-75
2022/11/27 07:10:40;;;;;;;6.53;1.13;;;6.70;99.90;;;;;;4984230;28;20577;-76
2022/11/27 07:13:05;;;;;;;2.75;1.27;;;6.70;99.90;;;;;;5000983;28;20306;-76
2022/11/27 07:15:31;;;;;;;5.30;1.05;;;6.70;99.90;;;;;;4999026;28;20048;-76
2022/11/27 07:17:57;;;;;;;5.18;1.25;;;6.70;99.90;;;;;;5001574;28;20064;-76
2022/11/27 07:20:23;;;;;;;4.47;1.38;;;6.70;99.90;;;;;;4994937;28;20053;-75
2022/11/27 07:22:48;;;;;;;2.75;1.63;;;6.70;99.90;;;;;;5000810;28;20046;-75
2022/11/27 07:25:14;;;;;;;2.17;1.45;;;6.70;99.90;;;;;;4999489;28;20061;-76
2022/11/27 07:27:39;;;;;;;6.78;1.40;;;6.70;99.90;;;;;;5000939;28;20086;-76
2022/11/27 07:30:06;;;;;;;4.90;1.45;;;6.70;99.90;;;;;;4998498;28;20114;-75
2022/11/27 07:32:31;;;;;;;4.05;1.42;;;6.70;99.90;;;;;;5000797;28;21439;-76
2022/11/27 07:34:57;;;;;;;3.72;1.80;;;6.70;99.90;;;;;;5002931;28;20041;-76
2022/11/27 07:37:22;;;;;;;6.90;1.27;;;6.70;99.90;;;;;;5004598;28;20213;-76
2022/11/27 07:39:48;;;;;;;5.90;1.60;;;6.70;99.90;;;;;;4985062;28;20041;-76
2022/11/27 07:42:13;;;;;;;2.85;1.15;;;6.70;99.90;;;;;;4997979;28;20053;-76
2022/11/27 07:44:39;;;;;;;8.27;1.65;;;6.70;99.90;;;;;;4997290;28;20052;-75
2022/11/27 07:47:05;;;;;;;4.40;1.63;;;6.80;99.90;;;;;;4998303;28;20029;-76
2022/11/27 07:49:30;;;;;;;5.60;1.80;;;6.80;99.90;;;;;;4998518;28;20557;-76
2022/11/27 07:51:56;;;;;;;2.17;1.40;;;6.80;99.90;;;;;;4982991;28;20045;-76
2022/11/27 07:54:21;;;;;;;4.55;1.65;;;6.70;99.90;;;;;;4995266;28;20504;-75
2022/11/27 07:56:47;;;;;;;6.85;1.45;;;6.70;99.90;;;;;;4987557;28;20045;-74
2022/11/27 07:59:13;;;;;;;4.38;1.58;;;6.80;99.90;;;;;;5000463;28;20113;-76
2022/11/27 08:01:38;;;;;;;2.28;1.20;;;6.80;99.90;;;;;;4995845;28;20069;-76
2022/11/27 08:04:04;;;;;;;4.38;1.35;;;6.70;99.90;;;;;;5001098;28;20053;-76
2022/11/27 08:06:29;;;;;;;3.28;1.55;;;6.80;99.90;;;;;;4997944;28;20569;-76
2022/11/27 08:08:56;;;;;;;3.53;1.30;;;6.80;99.90;;;;;;4995784;28;20042;-75
2022/11/27 08:11:25;;;;;;;3.80;1.35;;;6.80;99.90;;;;;;4995541;28;20030;-77
2022/11/27 08:13:59;;;;;;;3.60;1.13;;;6.80;99.90;;;;;;4975926;28;20042;-76
2022/11/27 08:16:26;;;;;;;3.80;1.52;;;6.80;99.90;;;;;;4994568;28;20072;-75
2022/11/27 08:18:51;;;;;;;3.50;1.20;;;6.80;99.90;;;;;;4992728;28;20038;-76
2022/11/27 08:21:18;;;;;;;4.80;1.88;;;6.90;99.90;;;;;;4984130;28;20688;-76
2022/11/27 08:23:43;;;;;;;3.55;1.15;;;6.90;99.90;;;;;;4998584;28;20046;-76
2022/11/27 08:26:11;;;;;;;5.72;1.73;;;6.90;99.90;;;;;;4997718;28;20069;-76
2022/11/27 08:28:37;;;;;;;2.83;1.42;;;6.90;99.90;;;;;;4996344;28;20038;-76
2022/11/27 08:31:04;;;;;;;4.00;1.50;;;6.90;99.90;;;;;;4996481;28;20068;-75
2022/11/27 08:33:30;;;;;;;5.32;1.88;;;7.00;99.90;;;;;;4979718;28;20045;-76
2022/11/27 08:35:56;;;;;;;4.20;2.05;;;6.90;99.90;;;;;;4999643;28;20037;-75
2022/11/27 08:38:22;;;;;;;3.80;1.67;;;7.00;99.90;;;;;;4996059;28;20038;-76
2022/11/27 08:40:56;;;;;;;3.38;1.23;;;7.00;99.90;;;;;;4997981;28;20084;-75
2022/11/27 08:43:22;;;;;;;3.53;1.17;;;7.00;99.90;;;;;;4994820;28;20145;-76
2022/11/27 08:45:48;;;;;;;3.50;1.80;;;7.00;99.90;;;;;;4998085;28;20037;-76
2022/11/27 08:48:13;;;;;;;4.53;2.03;;;7.00;99.90;;;;;;4995118;28;20441;-76
2022/11/27 08:50:39;;;;;;;3.67;1.33;;;7.00;99.90;;;;;;4979830;28;20061;-75
2022/11/27 08:53:05;;;;;;;4.60;1.50;;;7.00;99.90;;;;;;4999231;28;20038;-75
2022/11/27 08:55:30;;;;;;;2.60;1.55;;;7.10;99.90;;;;;;4980058;28;20034;-75
2022/11/27 08:57:56;;;;;;;4.50;1.90;;;7.10;99.90;;;;;;4997685;28;20081;-75
2022/11/27 09:00:21;;;;;;;6.38;1.50;;;7.10;99.90;;;;;;4992608;28;20041;-75
2022/11/27 09:02:47;;;;;;;7.65;2.13;;;7.00;99.90;;;;;;4997624;28;20144;-76
2022/11/27 09:05:12;;;;;;;3.45;1.25;;;7.10;99.90;;;;;;4994110;28;20038;-75
2022/11/27 09:07:39;;;;;;;6.47;1.75;;;7.10;99.90;;;;;;4984827;28;20676;-75
2022/11/27 09:10:06;;;;;;;4.28;2.00;;;7.10;99.90;;;;;;4984351;28;20077;-75
2022/11/27 09:12:32;;;;;;;3.15;1.45;;;7.10;99.90;;;;;;4998256;28;20038;-76
2022/11/27 09:14:57;;;;;;;2.65;1.00;;;7.10;99.90;;;;;;4981862;28;20100;-75
2022/11/27 09:17:23;;;;;;;7.50;1.77;;;7.10;99.90;;;;;;4983855;28;20037;-76
2022/11/27 09:19:49;;;;;;;4.22;1.08;;;7.10;99.90;;;;;;5000489;28;20050;-76
2022/11/27 09:22:14;;;;;;;5.40;1.80;;;7.10;99.90;;;;;;4999807;28;20454;-75
2022/11/27 09:24:40;;;;;;;5.90;1.25;;;7.10;99.90;;;;;;4996557;28;20069;-76
2022/11/27 09:27:05;;;;;;;2.78;1.52;;;7.10;99.90;;;;;;4982807;28;20133;-75
2022/11/27 09:29:33;;;;;;;5.63;2.25;;;7.10;99.90;;;;;;4999884;28;20072;-76
2022/11/27 09:31:59;;;;;;;5.25;1.75;;;7.20;99.90;;;;;;4985854;28;20052;-77
2022/11/27 09:34:24;;;;;;;4.93;2.00;;;7.10;99.90;;;;;;4998808;28;20034;-76
2022/11/27 09:36:50;;;;;;;3.72;1.60;;;7.10;99.90;;;;;;5002016;28;20499;-76
2022/11/27 09:39:18;;;;;;;2.88;1.20;;;7.10;99.90;;;;;;5002056;28;20041;-75
2022/11/27 09:41:56;;;;;;;4.05;1.90;;;7.10;99.90;;;;;;4998326;28;20601;-75
2022/11/27 09:44:38;;;;;;;4.15;1.70;;;7.10;99.90;;;;;;4992228;28;20121;-75
2022/11/27 09:47:28;;;;;;;5.05;1.83;;;7.20;99.90;;;;;;5005449;28;20117;-73
2022/11/27 09:50:00;;;;;;;7.80;2.35;;;7.20;99.90;;;;;;5001581;28;20065;-75
2022/11/27 09:52:35;;;;;;;5.82;1.75;;;7.20;99.90;;;;;;4977112;28;21233;-75
2022/11/27 09:55:09;;;;;;;3.53;1.70;;;7.10;99.90;;;;;;4996477;28;20045;-75
2022/11/27 09:57:37;;;;;;;4.07;1.70;;;7.10;99.90;;;;;;5004452;28;20089;-75
2022/11/27 10:00:14;;;;;;;4.25;1.50;;;7.10;99.90;;;;;;5001486;28;20026;-75
2022/11/27 10:02:41;;;;;;;3.58;1.77;;;7.10;99.90;;;;;;4996389;28;20045;-75
2022/11/27 10:05:21;;;;;;;5.38;2.08;;;7.10;99.90;;;;;;4992152;28;20505;-75
2022/11/27 10:08:01;;;;;;;6.13;2.63;;;7.20;99.90;;;;;;5024140;28;20041;-75
2022/11/27 10:11:00;;;;;;;2.40;1.40;;;7.20;99.90;;;;;;4984564;28;20238;-75
2022/11/27 10:13:46;;;;;;;4.00;1.52;;;7.10;99.90;;;;;;4988991;28;20041;-75
2022/11/27 10:16:39;;;;;;;2.88;1.65;;;7.10;99.90;;;;;;4996095;28;20033;-75
2022/11/27 10:19:21;;;;;;;4.40;2.15;;;7.20;99.90;;;;;;4996511;28;20280;-75
2022/11/27 10:22:00;;;;;;;9.50;1.80;;;7.20;99.90;;;;;;4998124;28;20049;-75
2022/11/27 10:24:52;;;;;;;2.83;1.20;;;7.20;99.90;;;;;;4996386;28;20101;-75
2022/11/27 10:27:42;;;;;;;4.68;2.13;;;7.20;99.90;;;;;;5000413;28;20045;-75
2022/11/27 10:30:16;;;;;;;6.93;2.10;;;7.20;99.90;;;;;;4998728;28;20049;-77
2022/11/27 10:32:43;;;;;;;3.17;1.73;;;7.20;99.90;;;;;;4995233;28;20140;-75
2022/11/27 10:35:14;;;;;;;3.78;1.55;;;7.20;99.90;;;;;;4973818;28;20041;-75
2022/11/27 10:38:02;;;;;;;3.25;1.33;;;7.20;99.90;;;;;;4997172;28;20056;-75
2022/11/27 10:40:39;;;;;;;11.40;2.90;;;7.20;99.90;;;;;;5013150;28;20122;-75
2022/11/27 10:43:16;;;;;;;4.97;1.65;;;7.20;99.90;;;;;;4992907;28;20050;-75
2022/11/27 10:45:49;;;;;;;3.83;2.30;;;7.20;99.90;;;;;;4970856;28;21761;-75
2022/11/27 10:48:16;;;;;;;6.57;1.83;;;7.20;99.90;;;;;;4975378;28;20072;-75
2022/11/27 10:50:42;;;;;;;4.85;1.85;;;7.20;99.90;;;;;;4989986;28;21536;-75
2022/11/27 10:53:24;;;;;;;4.00;1.67;;;7.20;99.90;;;;;;4975687;28;20065;-75
2022/11/27 10:56:06;;;;;;;2.53;1.40;;;7.20;99.90;;;;;;4989252;28;20617;-75
2022/11/27 10:58:54;;;;;;;4.50;2.28;;;7.20;99.90;;;;;;4999261;28;20092;-75
2022/11/27 11:01:21;;;;;;;3.92;1.63;;;7.20;99.90;;;;;;4997451;28;20124;-75
2022/11/27 11:03:47;;;;;;;3.03;1.55;;;7.20;99.90;;;;;;5000393;28;20045;-75
2022/11/27 11:06:21;;;;;;;2.95;1.65;;;7.20;99.90;;;;;;4995469;28;20042;-75
2022/11/27 11:08:47;;;;;;;4.40;1.60;;;7.20;99.90;;;;;;4996737;28;20450;-75
2022/11/27 11:11:25;;;;;;;5.18;2.15;;;7.20;99.90;;;;;;4976809;28;20049;-75
2022/11/27 11:13:50;;;;;;;3.45;2.22;;;7.20;99.90;;;;;;4975596;28;20747;-75
2022/11/27 11:16:20;;;;;;;4.88;2.15;;;7.20;99.90;;;;;;4994963;28;20164;-75
2022/11/27 11:18:48;;;;;;;4.88;1.48;;;7.20;99.90;;;;;;4995559;28;20068;-75
2022/11/27 11:21:26;;;;;;;11.93;2.28;;;7.20;99.90;;;;;;4993849;28;20081;-75
2022/11/27 11:23:59;;;;;;;4.22;1.67;;;7.20;99.90;;;;;;4979773;28;20048;-75
2022/11/27 11:26:46;;;;;;;3.15;1.42;;;7.20;99.90;;;;;;4985526;28;20041;-75
2022/11/27 11:29:29;;;;;;;6.28;2.08;;;7.20;99.90;;;;;;4995391;28;20125;-75
2022/11/27 11:32:00;;;;;;;6.38;2.70;;;7.20;99.90;;;;;;4981611;28;20065;-75
2022/11/27 11:34:28;;;;;;;5.43;2.53;;;7.20;99.90;;;;;;5001723;28;20034;-75
2022/11/27 11:37:15;;;;;;;6.07;2.00;;;7.20;99.90;;;;;;4982219;28;20030;-75
2022/11/27 11:39:45;;;;;;;6.50;1.77;;;7.20;99.90;;;;;;4997329;28;20045;-75
2022/11/27 11:42:20;;;;;;;6.60;3.00;;;7.20;99.90;;;;;;4983133;28;20072;-75
2022/11/27 11:44:51;;;;;;;4.50;2.78;;;7.20;99.90;;;;;;4996319;28;20407;-75
2022/11/27 11:47:18;;;;;;;8.05;2.17;;;7.20;99.90;;;;;;4994261;28;20124;-75
2022/11/27 11:49:44;;;;;;;4.07;2.17;;;7.20;99.90;;;;;;4993773;28;20030;-75
2022/11/27 11:52:29;;;;;;;5.10;1.77;;;7.20;99.90;;;;;;4999485;28;20073;-75
2022/11/27 11:55:24;;;;;;;7.57;2.20;;;7.20;99.90;;;;;;4997947;28;20112;-75
2022/11/27 11:58:29;;;;;;;7.83;2.27;;;7.30;99.90;;;;;;4995639;28;20038;-75
2022/11/27 12:01:20;;;;;;;4.30;2.28;;;7.30;99.90;;;;;;4995033;28;20034;-75
2022/11/27 12:04:00;;;;;;;4.07;1.75;;;7.30;99.90;;;;;;5009461;28;20050;-75
2022/11/27 12:06:53;;;;;;;3.67;2.30;;;7.30;99.90;;;;;;4995089;28;20493;-75
2022/11/27 12:09:40;;;;;;;4.65;2.33;;;7.30;99.90;;;;;;4977363;28;20061;-76
2022/11/27 12:12:37;;;;;;;5.25;1.38;;;7.30;99.90;;;;;;4991700;28;20060;-75
2022/11/27 12:15:33;;;;;;;5.68;2.25;;;7.30;99.90;;;;;;4975198;28;20108;-75
2022/11/27 12:18:01;;;;;;;2.95;1.80;;;7.30;99.90;;;;;;4969851;28;20046;-75
2022/11/27 12:20:46;;;;;;;5.45;2.22;;;7.30;99.90;;;;;;5002190;28;20602;-76
2022/11/27 12:23:40;;;;;;;4.93;2.03;;;7.30;99.90;;;;;;4995742;28;20073;-75
2022/11/27 12:26:26;;;;;;;3.97;2.20;;;7.30;99.90;;;;;;4997844;28;20038;-75
2022/11/27 12:29:31;;;;;;;6.90;2.05;;;7.30;99.90;;;;;;5014577;28;20046;-75
2022/11/27 12:32:04;;;;;;;7.28;3.10;;;7.30;99.90;;;;;;4995522;28;20085;-75
2022/11/27 12:34:48;;;;;;;10.15;3.83;;;7.30;99.90;;;;;;4998079;28;20454;-75
2022/11/27 12:37:23;;;;;;;14.10;6.10;;;7.30;99.90;;;;;;4997583;28;20525;-75
2022/11/27 12:40:19;;;;;;;14.07;5.45;;;7.30;99.90;;;;;;4977168;28;20046;-75
2022/11/27 12:43:06;;;;;;;5.03;2.58;;;7.30;99.90;;;;;;4984506;28;20566;-75
2022/11/27 12:45:46;;;;;;;3.95;1.95;;;7.30;99.90;;;;;;5004077;28;20049;-75
2022/11/27 12:48:18;;;;;;;6.50;2.65;;;7.40;99.90;;;;;;5002620;28;20041;-75
2022/11/27 12:50:52;;;;;;;9.45;2.72;;;7.30;99.90;;;;;;4999852;28;20050;-75
2022/11/27 12:53:35;;;;;;;4.60;2.58;;;7.40;99.90;;;;;;4983053;28;20562;-75
2022/11/27 12:56:23;;;;;;;5.93;2.25;;;7.30;99.90;;;;;;4999082;28;20072;-75
2022/11/27 12:59:07;;;;;;;5.45;1.83;;;7.40;99.90;;;;;;4984559;28;20571;-75
2022/11/27 13:01:42;;;;;;;4.28;2.10;;;7.40;99.90;;;;;;5002785;28;20042;-75
2022/11/27 13:04:31;;;;;;;4.72;2.42;;;7.40;99.90;;;;;;4999911;28;20038;-75
2022/11/27 13:07:21;;;;;;;3.47;1.80;;;7.40;99.90;;;;;;5018817;28;20088;-75
2022/11/27 13:10:02;;;;;;;3.50;1.77;;;7.40;99.90;;;;;;4998518;28;20066;-75
2022/11/27 13:12:41;;;;;;;5.03;1.83;;;7.40;99.90;;;;;;5017931;28;20522;-75
2022/11/27 13:15:19;;;;;;;5.57;2.78;;;7.40;99.90;;;;;;5002170;28;20038;-75
2022/11/27 13:17:52;;;;;;;5.25;2.15;;;7.40;99.90;;;;;;5000567;28;20026;-75
2022/11/27 13:20:23;;;;;;;5.25;2.60;;;7.40;99.90;;;;;;4997987;28;20056;-75